KDRT/DRT METAR and TAF weather

Enter ICAO airport designator
Station Type Date Time Source
KDRT METAR 2019/02/17 08:20 UTC NOAA

KDRT 170820Z AUTO 35008KT 1 3/4SM BR OVC003 15/15 A2972 RMK AO2 T01500150


Station Type Date Time Source
KDRT Decoded METAR 2019/02/17 08:20 UTC NOAA

DEL RIO INTERNATIONAL AIRPORT, TX, United States (KDRT) 29-22N 100-55W 313M
Feb 17, 2019 - 03:20 AM EST / 2019.02.17 0820 UTC
Wind: from the N (350 degrees) at 9 MPH (8 KT):0
Visibility: 1 3/4 mile(s):0
Sky conditions: overcast
Weather: mist
Temperature: 59.0 F (15.0 C)
Dew Point: 59.0 F (15.0 C)
Relative Humidity: 100%
Pressure (altimeter): 29.72 in. Hg (1006 hPa)
ob: KDRT 170820Z AUTO 35008KT 1 3/4SM BR OVC003 15/15 A2972 RMK AO2 T01500150
cycle: 8

Station Type Date Time Source
KDRT TAF 2019/02/17 06:42 UTC NOAA

TAF KDRT 170541Z 1706/1806 12008KT P6SM SKC
TEMPO 1706/1708 BKN006
FM170800 33010KT P6SM SCT250
FM180300 08007KT P6SM SCT250


Example: see airport list